Time;durP1;ratioP1;P1;durP2;ratioP2;P2;SDS_P1;SDS_P2;PMS_P1;PMS_P2;Temp;Humidity;BMP_temperature;BMP_pressure;BME280_temperature;BME280_humidity;BME280_pressure;Samples;Min_cycle;Max_cycle;Signal;HPM_P1;HPM_P2
2021/07/05 00:01:48;;;;;;;7.55;2.50;;;16.90;96.10;;;;;;5034003;28;20396;-80
2021/07/05 00:04:14;;;;;;;;;;;16.70;96.10;;;;;;5034565;28;20164;-78
2021/07/05 00:06:40;;;;;;;10.50;2.47;;;16.80;96.30;;;;;;5034033;28;19905;-81
2021/07/05 00:09:06;;;;;;;;;;;16.90;96.10;;;;;;5034334;28;20032;-79
2021/07/05 00:11:32;;;;;;;7.85;2.30;;;16.80;95.70;;;;;;5033824;28;19905;-77
2021/07/05 00:13:59;;;;;;;9.10;2.35;;;16.70;96.00;;;;;;5032465;28;20478;-80
2021/07/05 00:16:25;;;;;;;12.40;3.05;;;16.70;96.40;;;;;;5033865;28;20028;-79
2021/07/05 00:18:51;;;;;;;8.68;2.70;;;16.60;96.40;;;;;;5033830;28;20025;-80
2021/07/05 00:21:16;;;;;;;;;;;16.60;96.80;;;;;;5034135;28;20037;-79
2021/07/05 00:23:42;;;;;;;7.55;2.53;;;16.70;95.80;;;;;;5033716;28;19959;-79
2021/07/05 00:26:09;;;;;;;;;;;16.70;95.80;;;;;;5034166;28;20491;-77
2021/07/05 00:28:36;;;;;;;7.28;2.40;;;16.40;96.10;;;;;;5033550;28;19905;-78
2021/07/05 00:31:03;;;;;;;6.88;2.38;;;16.40;97.00;;;;;;5033540;28;20486;-78
2021/07/05 00:33:29;;;;;;;5.75;2.00;;;16.60;97.30;;;;;;5033406;28;20037;-79
2021/07/05 00:35:55;;;;;;;5.65;2.13;;;16.60;97.00;;;;;;5033805;28;20014;-79
2021/07/05 00:38:21;;;;;;;;;;;16.80;96.60;;;;;;5033669;28;20456;-80
2021/07/05 00:40:46;;;;;;;6.32;2.00;;;16.60;96.00;;;;;;5033419;28;19905;-80
2021/07/05 00:43:12;;;;;;;5.68;2.30;;;16.50;96.40;;;;;;5033447;28;20087;-80
2021/07/05 00:45:38;;;;;;;;;;;16.70;96.60;;;;;;5033816;28;20486;-79
2021/07/05 00:48:04;;;;;;;7.40;2.38;;;16.60;96.20;;;;;;5033497;28;19909;-81
2021/07/05 00:50:30;;;;;;;7.43;2.60;;;16.40;96.50;;;;;;5033286;28;20527;-78
2021/07/05 00:52:58;;;;;;;;;;;16.50;96.70;;;;;;5033612;28;20064;-81
2021/07/05 00:55:25;;;;;;;7.78;2.60;;;16.60;96.60;;;;;;5033220;28;19909;-80
2021/07/05 00:57:51;;;;;;;6.53;2.30;;;16.40;96.30;;;;;;5033213;28;20540;-79
2021/07/05 01:00:18;;;;;;;;;;;16.30;97.00;;;;;;5038076;28;20462;-80
2021/07/05 01:02:45;;;;;;;6.85;2.35;;;16.50;97.10;;;;;;5038524;28;19909;-78
2021/07/05 01:05:12;;;;;;;6.47;2.40;;;16.50;97.00;;;;;;5039788;28;20028;-77
2021/07/05 01:07:38;;;;;;;6.72;2.28;;;16.60;97.10;;;;;;5040059;28;20025;-79
2021/07/05 01:10:07;;;;;;;6.18;2.30;;;16.80;96.50;;;;;;5039581;28;20060;-80
2021/07/05 01:12:33;;;;;;;7.13;3.03;;;16.80;96.20;;;;;;5039626;28;20021;-79
2021/07/05 01:15:00;;;;;;;8.95;2.53;;;16.70;96.70;;;;;;5039712;28;20018;-78
2021/07/05 01:17:25;;;;;;;6.90;2.40;;;16.70;96.90;;;;;;5039930;28;20036;-77
2021/07/05 01:19:51;;;;;;;;;;;16.90;96.60;;;;;;5040087;28;20100;-80
2021/07/05 01:22:18;;;;;;;7.75;2.50;;;16.90;96.20;;;;;;5039668;28;19951;-79
2021/07/05 01:24:46;;;;;;;7.40;2.53;;;16.80;96.00;;;;;;5039711;28;20080;-78
2021/07/05 01:27:13;;;;;;;6.45;2.35;;;16.60;96.30;;;;;;5039587;28;20017;-78
2021/07/05 01:29:39;;;;;;;6.13;2.38;;;16.60;96.40;;;;;;5039526;28;20033;-79
2021/07/05 01:32:06;;;;;;;7.43;2.42;;;16.60;97.10;;;;;;5039516;28;20363;-78
2021/07/05 01:34:32;;;;;;;6.63;2.78;;;16.60;96.60;;;;;;5039364;28;20033;-78
2021/07/05 01:36:58;;;;;;;9.52;2.30;;;16.60;96.40;;;;;;5039294;28;20513;-79
2021/07/05 01:39:24;;;;;;;;;;;16.70;96.60;;;;;;5039909;28;20038;-79
2021/07/05 01:41:51;;;;;;;7.32;2.20;;;16.70;96.60;;;;;;5039630;28;20027;-78
2021/07/05 01:44:17;;;;;;;6.03;2.40;;;16.60;96.50;;;;;;5039337;28;20432;-77
2021/07/05 01:46:43;;;;;;;;;;;16.60;96.70;;;;;;5039746;28;20040;-80
2021/07/05 01:49:11;;;;;;;12.00;2.17;;;16.70;96.40;;;;;;5039517;28;19929;-79
2021/07/05 01:51:37;;;;;;;6.05;2.20;;;16.70;96.60;;;;;;5038022;28;20072;-79
2021/07/05 01:54:03;;;;;;;;;;;16.80;96.90;;;;;;5039622;28;20433;-80
2021/07/05 01:56:30;;;;;;;5.70;2.25;;;16.80;96.80;;;;;;5039443;28;19905;-79
2021/07/05 01:58:56;;;;;;;5.60;2.28;;;16.70;96.30;;;;;;5038021;28;20033;-78
2021/07/05 02:01:22;;;;;;;6.00;2.20;;;16.70;96.60;;;;;;5039301;28;20100;-78
2021/07/05 02:03:47;;;;;;;;;;;16.70;96.60;;;;;;5039571;28;20056;-79
2021/07/05 02:06:13;;;;;;;7.18;2.15;;;16.70;95.90;;;;;;5039158;28;19957;-78
2021/07/05 02:08:39;;;;;;;;;;;16.70;96.70;;;;;;5040021;28;20429;-77
2021/07/05 02:11:05;;;;;;;6.70;2.88;;;16.60;96.20;;;;;;5035274;28;20015;-78
2021/07/05 02:13:35;;;;;;;5.32;1.95;;;16.70;97.10;;;;;;5036087;28;20478;-80
2021/07/05 02:16:01;;;;;;;8.52;2.38;;;16.90;96.80;;;;;;5035931;28;20022;-78
2021/07/05 02:18:28;;;;;;;;;;;16.80;96.40;;;;;;5035076;28;20026;-79
2021/07/05 02:20:56;;;;;;;4.90;2.17;;;16.90;96.80;;;;;;5036031;28;19956;-80
2021/07/05 02:23:22;;;;;;;6.00;2.40;;;16.90;96.90;;;;;;5035887;28;20025;-78
2021/07/05 02:25:49;;;;;;;5.38;2.13;;;16.90;96.80;;;;;;5035760;28;20021;-78
2021/07/05 02:28:24;;;;;;;11.00;2.20;;;17.00;95.80;;;;;;5035714;28;20033;-77
2021/07/05 02:30:50;;;;;;;7.05;2.30;;;17.10;95.50;;;;;;5034223;28;20025;-77
2021/07/05 02:33:19;;;;;;;8.65;2.60;;;17.10;95.30;;;;;;5035561;28;20029;-79
2021/07/05 02:35:45;;;;;;;8.38;2.70;;;17.00;95.60;;;;;;5035597;28;20537;-79
2021/07/05 02:38:12;;;;;;;;;;;16.90;95.80;;;;;;5035781;28;20037;-79
2021/07/05 02:40:44;;;;;;;8.65;2.40;;;16.70;96.00;;;;;;5035532;28;19915;-79
2021/07/05 02:43:11;;;;;;;7.10;2.40;;;16.80;96.50;;;;;;5035544;28;20034;-77
2021/07/05 02:45:37;;;;;;;7.18;2.30;;;16.80;96.20;;;;;;5035399;28;20022;-78
2021/07/05 02:48:07;;;;;;;;;;;16.70;96.20;;;;;;5035812;28;20038;-78
2021/07/05 02:50:33;;;;;;;7.72;2.33;;;16.60;96.10;;;;;;5035345;28;19905;-79
2021/07/05 02:53:01;;;;;;;4.97;2.20;;;16.50;96.60;;;;;;5035294;28;20117;-76
2021/07/05 02:55:26;;;;;;;6.22;2.30;;;16.60;96.40;;;;;;5033968;28;20029;-79
2021/07/05 02:57:52;;;;;;;;;;;16.70;96.70;;;;;;5035770;28;20072;-78
2021/07/05 03:00:40;;;;;;;8.20;2.20;;;16.80;95.20;;;;;;5035220;28;20281;-80
2021/07/05 03:03:06;;;;;;;7.05;2.08;;;16.80;95.40;;;;;;5035304;28;20033;-79
2021/07/05 03:05:32;;;;;;;10.57;2.38;;;16.90;95.10;;;;;;5035387;28;20021;-77
2021/07/05 03:07:59;;;;;;;6.63;2.28;;;16.90;94.70;;;;;;5033789;28;20033;-78
2021/07/05 03:10:34;;;;;;;7.55;2.45;;;16.80;94.70;;;;;;5034998;28;20022;-80
2021/07/05 03:13:03;;;;;;;8.23;2.70;;;16.90;95.40;;;;;;5033348;28;20124;-78
2021/07/05 03:15:29;;;;;;;6.53;2.00;;;16.80;95.10;;;;;;5034905;28;20101;-78
2021/07/05 03:17:56;;;;;;;5.45;2.40;;;16.70;96.10;;;;;;5035048;28;20053;-78
2021/07/05 03:20:24;;;;;;;7.40;2.30;;;16.70;96.30;;;;;;5033518;28;20486;-79
2021/07/05 03:22:51;;;;;;;6.10;2.28;;;16.70;95.80;;;;;;5034326;28;20079;-80
2021/07/05 03:25:20;;;;;;;5.80;2.20;;;16.60;96.00;;;;;;5034670;28;20026;-78
2021/07/05 03:27:47;;;;;;;4.97;2.30;;;16.40;96.50;;;;;;5034639;28;20091;-79
2021/07/05 03:30:15;;;;;;;9.25;2.60;;;16.40;96.20;;;;;;5034600;28;20021;-78
2021/07/05 03:32:41;;;;;;;6.38;2.15;;;16.40;95.80;;;;;;5034719;28;20547;-78
2021/07/05 03:35:09;;;;;;;5.07;2.20;;;16.30;95.60;;;;;;5034512;28;20010;-78
2021/07/05 03:37:35;;;;;;;8.25;2.45;;;16.30;96.20;;;;;;5034495;28;20045;-78
2021/07/05 03:40:03;;;;;;;6.32;2.60;;;16.10;96.00;;;;;;5034458;28;20025;-76
2021/07/05 03:42:29;;;;;;;5.38;2.35;;;16.00;96.70;;;;;;5034362;28;20120;-80
2021/07/05 03:44:55;;;;;;;4.13;2.10;;;16.00;97.00;;;;;;5034324;28;20049;-79
2021/07/05 03:47:20;;;;;;;;;;;16.00;96.90;;;;;;5033396;28;20060;-78
2021/07/05 03:49:46;;;;;;;7.47;2.28;;;16.10;96.90;;;;;;5034389;28;19905;-78
2021/07/05 03:52:12;;;;;;;;;;;16.10;96.40;;;;;;5034603;28;20393;-78
2021/07/05 03:54:38;;;;;;;8.05;2.40;;;16.20;95.30;;;;;;5034131;28;20464;-78
2021/07/05 03:57:04;;;;;;;6.88;2.28;;;16.20;95.70;;;;;;5034046;28;20125;-78
2021/07/05 03:59:30;;;;;;;8.45;2.53;;;16.10;96.50;;;;;;5032748;28;20402;-78
2021/07/05 04:01:56;;;;;;;10.68;2.40;;;16.20;96.20;;;;;;5034029;28;20018;-80
2021/07/05 04:04:22;;;;;;;;;;;16.40;95.20;;;;;;5034390;28;20072;-78
2021/07/05 04:06:48;;;;;;;7.00;2.60;;;16.50;95.50;;;;;;5033971;28;20296;-78
2021/07/05 04:09:14;;;;;;;;;;;16.40;95.60;;;;;;5032963;28;20060;-79
2021/07/05 04:11:39;;;;;;;6.72;2.22;;;16.50;94.70;;;;;;5032570;28;19905;-77
2021/07/05 04:14:05;;;;;;;7.68;2.65;;;16.60;94.30;;;;;;5032461;28;20026;-77
2021/07/05 04:16:31;;;;;;;;;;;16.50;94.20;;;;;;5034324;28;20025;-78
2021/07/05 04:18:56;;;;;;;11.35;2.92;;;16.50;93.80;;;;;;5033709;28;19920;-79
2021/07/05 04:21:25;;;;;;;;;;;16.50;94.00;;;;;;5034306;28;20537;-79
2021/07/05 04:23:53;;;;;;;7.03;3.10;;;16.50;94.00;;;;;;5033580;28;20370;-79
2021/07/05 04:26:19;;;;;;;9.82;2.90;;;16.40;93.80;;;;;;5032272;28;20493;-77
2021/07/05 04:28:45;;;;;;;9.52;2.70;;;16.50;94.10;;;;;;5033498;28;20033;-77
2021/07/05 04:31:11;;;;;;;7.85;2.72;;;16.50;94.00;;;;;;5033552;28;20096;-77
2021/07/05 04:33:37;;;;;;;;;;;16.50;93.90;;;;;;5033236;28;20505;-78
2021/07/05 04:36:03;;;;;;;6.47;2.45;;;16.70;93.50;;;;;;5033216;28;20361;-79
2021/07/05 04:38:29;;;;;;;7.70;2.88;;;16.60;93.60;;;;;;5033005;28;20041;-78
2021/07/05 04:41:01;;;;;;;9.68;3.00;;;16.70;93.60;;;;;;5033468;28;20029;-77
2021/07/05 04:43:27;;;;;;;7.55;3.08;;;16.60;93.00;;;;;;5033691;28;20029;-78
2021/07/05 04:45:54;;;;;;;;;;;16.40;93.60;;;;;;5033882;28;20029;-77
2021/07/05 04:48:21;;;;;;;12.00;2.70;;;16.40;93.10;;;;;;5033514;28;19912;-78
2021/07/05 04:50:47;;;;;;;9.57;2.40;;;16.30;93.20;;;;;;5033367;28;20481;-78
2021/07/05 04:53:13;;;;;;;8.60;2.60;;;16.30;93.50;;;;;;5033177;28;20097;-78
2021/07/05 04:55:38;;;;;;;;;;;16.40;93.30;;;;;;5033617;28;20029;-78
2021/07/05 04:58:04;;;;;;;6.68;2.20;;;16.50;92.50;;;;;;5033198;28;19916;-77
2021/07/05 05:00:31;;;;;;;;;;;16.40;92.90;;;;;;5033615;28;20032;-80
2021/07/05 05:02:58;;;;;;;7.13;2.20;;;16.40;92.60;;;;;;5032855;28;20015;-78
2021/07/05 05:05:24;;;;;;;6.93;2.42;;;16.40;93.10;;;;;;5033224;28;20076;-78
2021/07/05 05:07:50;;;;;;;;;;;16.50;93.00;;;;;;5033563;28;20063;-79
2021/07/05 05:10:17;;;;;;;11.32;2.40;;;16.40;93.00;;;;;;5033015;28;19905;-77
2021/07/05 05:12:44;;;;;;;13.60;2.10;;;16.50;93.20;;;;;;5032976;28;20030;-78
2021/07/05 05:15:11;;;;;;;11.05;2.50;;;16.70;93.00;;;;;;5032932;28;20018;-78
2021/07/05 05:17:37;;;;;;;11.20;2.90;;;16.80;92.20;;;;;;5031625;28;20499;-79
2021/07/05 05:20:05;;;;;;;7.20;2.65;;;16.50;92.70;;;;;;5031572;28;20025;-78
2021/07/05 05:22:31;;;;;;;9.07;2.88;;;16.40;93.10;;;;;;5031411;28;20470;-79
2021/07/05 05:24:57;;;;;;;;;;;16.50;92.60;;;;;;5033226;28;20075;-78
2021/07/05 05:27:22;;;;;;;5.43;2.63;;;16.60;92.80;;;;;;5032833;28;20348;-75
2021/07/05 05:29:48;;;;;;;;;;;16.70;92.80;;;;;;5033227;28;20021;-79
2021/07/05 05:32:14;;;;;;;14.90;2.90;;;16.90;91.70;;;;;;5032863;28;19909;-77
2021/07/05 05:34:39;;;;;;;;;;;16.90;92.00;;;;;;5033090;28;20109;-77
2021/07/05 05:37:05;;;;;;;8.50;2.85;;;16.90;92.00;;;;;;5032930;28;19920;-78
2021/07/05 05:39:31;;;;;;;;;;;16.80;92.00;;;;;;5033108;28;20482;-78
2021/07/05 05:41:56;;;;;;;6.80;2.40;;;16.70;91.80;;;;;;5032700;28;19963;-79
2021/07/05 05:44:22;;;;;;;;;;;16.70;91.90;;;;;;5033058;28;20072;-78
2021/07/05 05:46:48;;;;;;;4.82;2.33;;;16.70;92.00;;;;;;5035618;28;19944;-77
2021/07/05 05:49:13;;;;;;;;;;;16.80;92.20;;;;;;5037207;28;20061;-78
2021/07/05 05:51:39;;;;;;;8.23;2.67;;;17.00;91.40;;;;;;5036340;28;19905;-77
2021/07/05 05:54:06;;;;;;;;;;;17.00;91.00;;;;;;5036673;28;20029;-79
2021/07/05 05:56:33;;;;;;;8.25;2.60;;;17.10;91.00;;;;;;5036369;28;19996;-78
2021/07/05 05:59:05;;;;;;;5.63;2.15;;;17.30;90.30;;;;;;5036195;28;20025;-77
2021/07/05 06:01:35;;;;;;;5.50;2.10;;;17.60;90.20;;;;;;5034732;28;20076;-77
2021/07/05 06:04:01;;;;;;;6.18;2.10;;;17.70;90.20;;;;;;5036202;28;20503;-78
2021/07/05 06:06:27;;;;;;;7.82;2.10;;;17.80;88.90;;;;;;5036117;28;20028;-79
2021/07/05 06:08:54;;;;;;;6.18;2.10;;;17.80;90.40;;;;;;5036550;28;20437;-79
2021/07/05 06:11:21;;;;;;;7.13;2.10;;;18.10;88.70;;;;;;5036053;28;20105;-77
2021/07/05 06:13:47;;;;;;;8.82;2.00;;;18.00;88.80;;;;;;5035975;28;20033;-79
2021/07/05 06:16:13;;;;;;;7.75;2.35;;;17.70;88.70;;;;;;5035920;28;20029;-78
2021/07/05 06:18:39;;;;;;;9.30;2.03;;;17.50;90.00;;;;;;5035972;28;20021;-78
2021/07/05 06:21:04;;;;;;;;;;;17.30;88.70;;;;;;5036517;28;20037;-77
2021/07/05 06:23:30;;;;;;;3.05;1.80;;;17.20;90.00;;;;;;5034428;28;19954;-77
2021/07/05 06:25:58;;;;;;;6.95;1.95;;;17.70;89.70;;;;;;5034471;28;20440;-77
2021/07/05 06:28:26;;;;;;;4.75;1.63;;;18.10;87.80;;;;;;5034435;28;20411;-78
2021/07/05 06:30:52;;;;;;;6.03;2.00;;;18.10;87.40;;;;;;5035745;28;20418;-77
2021/07/05 06:33:19;;;;;;;3.83;1.80;;;18.00;86.90;;;;;;5035456;28;20040;-79
2021/07/05 06:35:46;;;;;;;5.10;1.98;;;18.20;85.80;;;;;;5035528;28;20394;-79
2021/07/05 06:38:12;;;;;;;5.28;1.73;;;18.20;87.40;;;;;;5035371;28;20091;-79
2021/07/05 06:40:39;;;;;;;5.60;2.00;;;18.20;86.30;;;;;;5034010;28;20021;-76
2021/07/05 06:43:05;;;;;;;8.27;2.05;;;17.90;86.80;;;;;;5035318;28;20104;-77
2021/07/05 06:45:32;;;;;;;3.10;1.65;;;17.90;87.20;;;;;;5035413;28;20489;-78
2021/07/05 06:47:58;;;;;;;5.45;1.70;;;18.20;86.20;;;;;;5035435;28;20084;-79
2021/07/05 06:50:25;;;;;;;6.13;1.83;;;18.70;86.70;;;;;;5034087;28;20034;-78
2021/07/05 06:52:51;;;;;;;7.78;2.03;;;19.00;84.10;;;;;;5035228;28;20021;-79
2021/07/05 06:55:17;;;;;;;4.03;1.60;;;18.90;83.80;;;;;;5035225;28;20025;-79
2021/07/05 06:57:43;;;;;;;6.78;1.60;;;19.10;84.00;;;;;;5034636;28;20026;-77
2021/07/05 07:00:13;;;;;;;2.03;1.30;;;19.20;82.70;;;;;;5035147;28;20017;-78
2021/07/05 07:02:40;;;;;;;4.57;1.52;;;19.10;82.20;;;;;;5035513;28;20022;-78
2021/07/05 07:05:07;;;;;;;2.80;1.30;;;19.10;82.80;;;;;;5035019;28;20049;-77
2021/07/05 07:07:33;;;;;;;5.00;1.58;;;19.00;83.90;;;;;;5035189;28;20017;-77
2021/07/05 07:10:00;;;;;;;3.45;1.50;;;19.00;83.90;;;;;;5034960;28;20108;-77
2021/07/05 07:12:26;;;;;;;6.40;1.48;;;19.00;83.80;;;;;;5034873;28;20478;-78
2021/07/05 07:14:51;;;;;;;8.32;1.73;;;19.00;82.50;;;;;;5034795;28;20109;-78
2021/07/05 07:17:39;;;;;;;4.22;1.48;;;18.90;84.60;;;;;;5034856;28;20049;-76
2021/07/05 07:20:11;;;;;;;4.55;1.40;;;19.00;83.80;;;;;;5034873;28;20032;-77
2021/07/05 07:22:38;;;;;;;5.38;1.40;;;18.80;84.10;;;;;;5034859;28;20022;-79
2021/07/05 07:25:06;;;;;;;1.88;1.20;;;18.80;83.40;;;;;;5034651;28;20477;-77
2021/07/05 07:27:33;;;;;;;4.70;1.40;;;19.00;83.30;;;;;;5033348;28;20025;-79
2021/07/05 07:29:59;;;;;;;5.82;1.50;;;19.10;83.30;;;;;;5034560;28;20470;-78
2021/07/05 07:32:25;;;;;;;3.78;1.30;;;19.00;82.40;;;;;;5033159;28;20026;-78
2021/07/05 07:34:50;;;;;;;4.25;1.13;;;19.20;81.60;;;;;;5034400;28;20439;-78
2021/07/05 07:37:16;;;;;;;4.40;1.20;;;19.30;80.70;;;;;;5034232;28;20045;-76
2021/07/05 07:39:47;;;;;;;4.22;1.40;;;19.30;80.40;;;;;;5034433;28;20017;-79
2021/07/05 07:42:13;;;;;;;4.18;1.45;;;19.30;80.10;;;;;;5034377;28;20067;-79
2021/07/05 07:44:39;;;;;;;3.70;1.30;;;19.10;81.70;;;;;;5034304;28;20029;-76
2021/07/05 07:47:06;;;;;;;6.40;1.50;;;19.10;81.80;;;;;;5034397;28;20029;-77
2021/07/05 07:49:33;;;;;;;6.43;1.40;;;19.40;82.90;;;;;;5034293;28;20021;-79
2021/07/05 07:52:00;;;;;;;2.60;1.20;;;19.40;81.50;;;;;;5034271;28;20021;-78
2021/07/05 07:54:26;;;;;;;6.30;1.75;;;19.70;81.70;;;;;;5034008;28;20029;-78
2021/07/05 07:56:52;;;;;;;3.70;1.23;;;19.70;79.70;;;;;;5034369;28;20021;-77
2021/07/05 07:59:18;;;;;;;3.35;1.58;;;19.60;80.20;;;;;;5033932;28;20018;-77
2021/07/05 08:01:44;;;;;;;4.82;1.35;;;19.40;81.80;;;;;;5033972;28;20029;-76
2021/07/05 08:04:10;;;;;;;4.35;1.60;;;19.40;81.30;;;;;;5033856;28;20503;-78
2021/07/05 08:06:36;;;;;;;4.65;1.42;;;19.20;82.60;;;;;;5033838;28;20044;-78
2021/07/05 08:09:04;;;;;;;5.50;1.67;;;19.20;83.10;;;;;;5032819;28;20029;-79
2021/07/05 08:11:31;;;;;;;5.63;1.50;;;19.00;85.30;;;;;;5033866;28;20057;-79
2021/07/05 08:13:58;;;;;;;3.70;1.33;;;19.00;86.30;;;;;;5033656;28;20063;-78
2021/07/05 08:16:25;;;;;;;4.45;1.48;;;19.10;86.50;;;;;;5033667;28;20524;-78
2021/07/05 08:18:51;;;;;;;2.97;1.40;;;19.10;85.80;;;;;;5033654;28;20025;-79
2021/07/05 08:21:17;;;;;;;3.53;1.40;;;19.10;85.40;;;;;;5033595;28;20375;-78
2021/07/05 08:23:43;;;;;;;2.97;1.35;;;19.50;83.80;;;;;;5033697;28;20022;-79
2021/07/05 08:26:09;;;;;;;7.40;1.58;;;19.70;82.90;;;;;;5033619;28;20029;-78
2021/07/05 08:28:35;;;;;;;6.13;1.65;;;20.10;81.50;;;;;;5033706;28;20401;-76
2021/07/05 08:31:04;;;;;;;4.85;1.55;;;20.10;81.50;;;;;;5033541;28;20025;-77
2021/07/05 08:33:31;;;;;;;7.15;2.13;;;20.40;80.00;;;;;;5033360;28;20021;-78
2021/07/05 08:35:58;;;;;;;4.60;1.65;;;20.60;80.20;;;;;;5033400;28;20025;-77
2021/07/05 08:38:24;;;;;;;5.75;1.40;;;20.90;79.10;;;;;;5033161;28;20053;-79
2021/07/05 08:40:50;;;;;;;6.05;1.48;;;21.20;78.30;;;;;;5033403;28;20018;-78
2021/07/05 08:43:17;;;;;;;5.07;1.40;;;21.10;76.50;;;;;;5033235;28;20477;-77
2021/07/05 08:45:45;;;;;;;6.35;1.45;;;20.60;77.10;;;;;;5033312;28;20030;-78
2021/07/05 08:48:13;;;;;;;4.93;1.45;;;20.40;79.80;;;;;;5033331;28;20018;-76
2021/07/05 08:50:41;;;;;;;2.80;1.40;;;20.10;79.40;;;;;;5033318;28;20390;-77
2021/07/05 08:53:06;;;;;;;3.40;1.40;;;20.30;79.20;;;;;;5033169;28;20071;-78
2021/07/05 08:55:32;;;;;;;3.75;1.63;;;20.50;77.40;;;;;;5033254;28;20474;-76
2021/07/05 08:57:58;;;;;;;2.60;1.10;;;20.40;76.60;;;;;;5033194;28;20030;-78
2021/07/05 09:00:28;;;;;;;3.15;1.25;;;20.50;75.60;;;;;;5033135;28;20056;-77
2021/07/05 09:02:59;;;;;;;3.97;1.20;;;20.40;77.40;;;;;;5033218;28;20037;-79
2021/07/05 09:05:25;;;;;;;2.08;1.10;;;20.80;76.90;;;;;;5033134;28;20478;-77
2021/07/05 09:08:06;;;;;;;5.80;1.20;;;21.00;76.20;;;;;;5033120;28;20048;-78
2021/07/05 09:10:58;;;;;;;1.85;1.02;;;21.20;74.80;;;;;;5031526;28;20021;-78
2021/07/05 09:13:26;;;;;;;3.85;1.30;;;21.10;74.00;;;;;;5031593;28;20041;-77
2021/07/05 09:15:54;;;;;;;3.10;1.20;;;21.20;75.10;;;;;;5033056;28;20098;-76
2021/07/05 09:18:43;;;;;;;4.38;1.27;;;20.90;74.00;;;;;;5031752;28;20060;-77
2021/07/05 09:21:12;;;;;;;1.58;1.02;;;21.00;74.00;;;;;;5035152;28;20379;-76
2021/07/05 09:23:52;;;;;;;2.03;1.15;;;21.30;73.80;;;;;;5036948;28;20489;-77
2021/07/05 09:26:22;;;;;;;2.38;1.10;;;20.80;74.00;;;;;;5037162;28;20401;-78
2021/07/05 09:28:51;;;;;;;2.20;1.10;;;20.90;75.10;;;;;;5036958;28;20482;-76
2021/07/05 09:31:29;;;;;;;2.88;1.08;;;21.00;73.70;;;;;;5035606;28;20041;-76
2021/07/05 09:33:55;;;;;;;2.55;1.20;;;21.10;73.30;;;;;;5036760;28;20029;-78
2021/07/05 09:36:23;;;;;;;2.42;1.13;;;20.90;74.40;;;;;;5036762;28;20033;-77
2021/07/05 09:38:50;;;;;;;2.70;1.20;;;21.10;74.40;;;;;;5036197;28;20041;-76
2021/07/05 09:41:29;;;;;;;3.42;1.20;;;20.60;74.30;;;;;;5036734;28;20029;-77
2021/07/05 09:43:59;;;;;;;3.20;1.10;;;20.40;75.50;;;;;;5036761;28;20029;-78
2021/07/05 09:46:43;;;;;;;3.83;1.30;;;20.50;75.10;;;;;;5036612;28;20025;-78
2021/07/05 09:49:31;;;;;;;2.45;1.02;;;20.60;74.60;;;;;;5036428;28;20025;-78
2021/07/05 09:52:25;;;;;;;2.42;1.20;;;20.30;75.20;;;;;;5036725;28;20055;-77
2021/07/05 09:55:05;;;;;;;4.38;1.38;;;20.30;74.80;;;;;;5035291;28;20042;-77
2021/07/05 09:57:52;;;;;;;2.38;1.30;;;20.30;75.40;;;;;;5034658;28;20433;-78
2021/07/05 10:00:23;;;;;;;3.80;1.33;;;20.00;77.10;;;;;;5036164;28;20025;-78
2021/07/05 10:03:01;;;;;;;3.33;1.50;;;19.60;75.40;;;;;;5034824;28;20441;-76
2021/07/05 10:05:34;;;;;;;2.78;1.70;;;19.50;77.40;;;;;;5036321;28;20047;-77
2021/07/05 10:08:10;;;;;;;4.05;1.40;;;19.50;79.00;;;;;;5034759;28;20021;-76
2021/07/05 10:10:40;;;;;;;7.00;1.70;;;19.40;79.00;;;;;;5035997;28;20087;-76
2021/07/05 10:13:08;;;;;;;3.33;1.58;;;19.40;81.70;;;;;;5035878;28;20100;-78
2021/07/05 10:15:35;;;;;;;3.28;1.60;;;19.80;77.80;;;;;;5036115;28;20490;-77
2021/07/05 10:18:02;;;;;;;4.03;1.60;;;20.00;76.80;;;;;;5034577;28;20394;-79
2021/07/05 10:20:31;;;;;;;5.43;1.80;;;19.80;74.90;;;;;;5035826;28;20014;-78
2021/07/05 10:23:02;;;;;;;4.63;1.80;;;19.80;74.30;;;;;;5035658;28;20116;-77
2021/07/05 10:25:30;;;;;;;6.20;1.98;;;19.80;75.50;;;;;;5034163;28;20067;-78
2021/07/05 10:27:56;;;;;;;5.07;1.80;;;19.90;74.50;;;;;;5035638;28;20124;-78
2021/07/05 10:30:24;;;;;;;6.72;1.80;;;19.80;74.90;;;;;;5035652;28;20101;-78
2021/07/05 10:32:51;;;;;;;6.53;1.90;;;19.90;74.90;;;;;;5034450;28;20025;-78
2021/07/05 10:35:21;;;;;;;4.88;1.70;;;19.80;74.90;;;;;;5035304;28;20406;-77
2021/07/05 10:38:01;;;;;;;4.13;1.98;;;20.00;76.10;;;;;;5035329;28;20055;-77
2021/07/05 10:40:39;;;;;;;5.32;1.80;;;19.90;76.90;;;;;;5035608;28;20044;-80
2021/07/05 10:43:07;;;;;;;5.80;1.80;;;20.10;75.80;;;;;;5035436;28;20108;-78
2021/07/05 10:45:48;;;;;;;5.63;2.10;;;19.80;75.00;;;;;;5035548;28;20049;-77
2021/07/05 10:48:41;;;;;;;6.47;2.00;;;19.40;74.70;;;;;;5035499;28;20036;-78
2021/07/05 10:51:14;;;;;;;7.65;2.13;;;19.60;74.80;;;;;;5033980;28;20028;-79
2021/07/05 10:53:44;;;;;;;7.30;2.30;;;19.60;74.10;;;;;;5035192;28;20076;-78
2021/07/05 10:56:31;;;;;;;5.35;2.05;;;19.60;75.00;;;;;;5035178;28;20021;-77
2021/07/05 10:59:12;;;;;;;7.57;2.10;;;19.30;74.10;;;;;;5035292;28;20393;-77
2021/07/05 11:01:46;;;;;;;5.45;2.08;;;19.30;75.50;;;;;;5035088;28;20104;-76
2021/07/05 11:04:19;;;;;;;5.22;1.95;;;19.50;74.40;;;;;;5035072;28;20029;-77
2021/07/05 11:06:46;;;;;;;7.85;2.22;;;19.50;74.30;;;;;;5035438;28;20037;-78
2021/07/05 11:09:32;;;;;;;5.53;2.10;;;19.50;74.30;;;;;;5035199;28;20030;-79
2021/07/05 11:11:59;;;;;;;10.32;2.50;;;19.60;75.60;;;;;;5033333;28;20056;-78
2021/07/05 11:14:32;;;;;;;7.35;2.35;;;19.60;74.70;;;;;;5035170;28;20037;-77
2021/07/05 11:17:14;;;;;;;8.27;2.60;;;19.80;75.40;;;;;;5034794;28;20017;-77
2021/07/05 11:19:54;;;;;;;8.68;2.25;;;19.80;75.00;;;;;;5034859;28;20505;-78
2021/07/05 11:22:29;;;;;;;8.32;2.08;;;19.90;74.90;;;;;;5034588;28;20024;-76
2021/07/05 11:25:30;;;;;;;9.52;2.67;;;19.70;75.50;;;;;;5034841;28;20033;-79
2021/07/05 11:28:01;;;;;;;5.45;2.20;;;19.40;77.20;;;;;;5025728;28;20037;-77
2021/07/05 11:30:33;;;;;;;8.65;2.55;;;19.40;77.10;;;;;;5034501;28;20478;-78
2021/07/05 11:33:11;;;;;;;6.97;2.15;;;19.10;77.80;;;;;;5034378;28;20025;-77
2021/07/05 11:36:00;;;;;;;12.70;2.58;;;19.30;78.50;;;;;;5034504;28;20029;-78
2021/07/05 11:38:32;;;;;;;5.68;2.30;;;19.50;79.00;;;;;;5034194;28;20033;-78
2021/07/05 11:41:10;;;;;;;8.23;2.75;;;19.60;78.00;;;;;;5034271;28;20028;-78
2021/07/05 11:44:04;;;;;;;7.75;2.70;;;19.60;76.50;;;;;;5034083;28;20021;-76
2021/07/05 11:46:30;;;;;;;5.17;2.13;;;19.60;76.50;;;;;;5034298;28;20037;-78
2021/07/05 11:49:07;;;;;;;7.47;2.47;;;19.60;76.60;;;;;;5034177;28;20390;-78
2021/07/05 11:51:43;;;;;;;7.70;2.30;;;19.80;76.80;;;;;;5034278;28;20017;-79
2021/07/05 11:54:14;;;;;;;8.45;2.58;;;19.80;77.90;;;;;;5034098;28;20041;-79
2021/07/05 11:56:47;;;;;;;8.00;2.65;;;19.80;76.90;;;;;;5034515;28;20018;-78
2021/07/05 11:59:17;;;;;;;10.60;2.50;;;20.20;76.20;;;;;;5034311;28;20021;-79
2021/07/05 12:01:44;;;;;;;9.88;2.55;;;20.30;72.80;;;;;;5033886;28;20028;-79
2021/07/05 12:04:11;;;;;;;5.75;2.30;;;20.10;72.50;;;;;;5033934;28;20033;-78
2021/07/05 12:06:37;;;;;;;9.07;2.63;;;20.30;74.20;;;;;;5033803;28;20029;-78
2021/07/05 12:09:08;;;;;;;7.53;2.30;;;20.40;72.20;;;;;;5032479;28;20402;-77
2021/07/05 12:11:37;;;;;;;6.38;2.33;;;20.50;70.40;;;;;;5033763;28;20076;-75
2021/07/05 12:14:08;;;;;;;8.43;2.47;;;20.50;70.30;;;;;;5033632;28;20033;-77
2021/07/05 12:16:34;;;;;;;8.70;2.40;;;20.50;72.70;;;;;;5033678;28;20022;-77
2021/07/05 12:19:04;;;;;;;6.65;2.05;;;20.40;71.80;;;;;;5033859;28;20017;-77
2021/07/05 12:21:43;;;;;;;6.45;2.20;;;20.40;70.00;;;;;;5033597;28;20053;-77
2021/07/05 12:24:27;;;;;;;5.63;1.90;;;20.30;71.00;;;;;;5033704;28;20482;-77
2021/07/05 12:27:00;;;;;;;7.00;2.05;;;19.70;72.00;;;;;;5033578;28;20103;-78
2021/07/05 12:29:34;;;;;;;6.95;2.30;;;19.60;71.20;;;;;;5033994;28;20124;-76
2021/07/05 12:32:14;;;;;;;7.32;2.28;;;19.10;73.90;;;;;;5031873;28;20405;-77
2021/07/05 12:34:48;;;;;;;5.88;2.10;;;19.30;74.80;;;;;;5031801;28;20040;-78
2021/07/05 12:37:19;;;;;;;8.07;2.40;;;19.40;70.90;;;;;;5033174;28;20567;-77
2021/07/05 12:39:52;;;;;;;6.35;1.85;;;19.30;70.40;;;;;;5033565;28;20040;-75
2021/07/05 12:42:32;;;;;;;6.45;2.10;;;19.10;70.10;;;;;;5033424;28;20029;-77
2021/07/05 12:44:59;;;;;;;6.68;2.05;;;19.00;69.80;;;;;;5033583;28;20040;-78
2021/07/05 12:47:26;;;;;;;7.95;2.22;;;19.00;70.80;;;;;;5033185;28;20033;-77
2021/07/05 12:49:54;;;;;;;10.23;2.38;;;19.20;71.50;;;;;;5033211;28;20108;-76
2021/07/05 12:52:20;;;;;;;7.97;2.50;;;19.20;73.20;;;;;;5033198;28;20547;-77
2021/07/05 12:54:46;;;;;;;6.18;1.88;;;19.50;73.00;;;;;;5032570;28;20025;-77
2021/07/05 12:57:17;;;;;;;5.45;2.10;;;19.40;70.00;;;;;;5033166;28;20021;-78
2021/07/05 13:00:01;;;;;;;6.28;1.90;;;19.00;70.80;;;;;;5033146;28;20130;-78
2021/07/05 13:02:31;;;;;;;7.65;2.20;;;18.70;70.40;;;;;;5033181;28;20025;-78
2021/07/05 13:05:14;;;;;;;7.43;2.30;;;18.50;72.20;;;;;;5031746;28;20493;-78